sensor_id;sensor_type;location;lat;lon;timestamp;pressure;altitude;pressure_sealevel;temperature;humidity
76598;BME280;65486;53.144;18.134;2022-12-29T00:01:04;100458.54;;;5.67;82.43
76598;BME280;65486;53.144;18.134;2022-12-29T00:03:31;100458.72;;;5.65;82.47
76598;BME280;65486;53.144;18.134;2022-12-29T00:05:58;100454.27;;;5.66;82.37
76598;BME280;65486;53.144;18.134;2022-12-29T00:08:26;100449.57;;;5.67;82.55
76598;BME280;65486;53.144;18.134;2022-12-29T00:11:11;100449.30;;;5.66;82.77
76598;BME280;65486;53.144;18.134;2022-12-29T00:13:40;100446.65;;;5.63;82.73
76598;BME280;65486;53.144;18.134;2022-12-29T00:16:26;100439.25;;;5.61;82.78
76598;BME280;65486;53.144;18.134;2022-12-29T00:18:55;100432.98;;;5.59;83.14
76598;BME280;65486;53.144;18.134;2022-12-29T00:21:23;100432.54;;;5.56;83.25
76598;BME280;65486;53.144;18.134;2022-12-29T00:24:17;100432.44;;;5.56;83.07
76598;BME280;65486;53.144;18.134;2022-12-29T00:27:10;100429.27;;;5.54;83.54
76598;BME280;65486;53.144;18.134;2022-12-29T00:29:58;100433.30;;;5.53;83.47
76598;BME280;65486;53.144;18.134;2022-12-29T00:32:44;100429.64;;;5.52;83.64
76598;BME280;65486;53.144;18.134;2022-12-29T00:35:39;100425.73;;;5.53;83.67
76598;BME280;65486;53.144;18.134;2022-12-29T00:38:10;100423.80;;;5.53;83.81
76598;BME280;65486;53.144;18.134;2022-12-29T00:40:57;100419.09;;;5.53;83.75
76598;BME280;65486;53.144;18.134;2022-12-29T00:43:45;100417.20;;;5.48;83.73
76598;BME280;65486;53.144;18.134;2022-12-29T00:46:42;100425.81;;;5.52;83.85
76598;BME280;65486;53.144;18.134;2022-12-29T00:49:11;100426.95;;;5.53;83.74
76598;BME280;65486;53.144;18.134;2022-12-29T00:52:07;100422.48;;;5.54;83.72
76598;BME280;65486;53.144;18.134;2022-12-29T00:54:37;100422.95;;;5.54;84.10
76598;BME280;65486;53.144;18.134;2022-12-29T00:57:07;100422.05;;;5.54;83.86
76598;BME280;65486;53.144;18.134;2022-12-29T00:59:35;100416.36;;;5.53;83.94
76598;BME280;65486;53.144;18.134;2022-12-29T01:02:03;100425.94;;;5.53;84.08
76598;BME280;65486;53.144;18.134;2022-12-29T01:04:32;100426.19;;;5.52;84.04
76598;BME280;65486;53.144;18.134;2022-12-29T01:07:00;100426.15;;;5.52;84.10
76598;BME280;65486;53.144;18.134;2022-12-29T01:09:27;100429.98;;;5.52;83.98
76598;BME280;65486;53.144;18.134;2022-12-29T01:12:13;100433.69;;;5.53;84.10
76598;BME280;65486;53.144;18.134;2022-12-29T01:14:43;100432.42;;;5.54;83.98
76598;BME280;65486;53.144;18.134;2022-12-29T01:17:11;100430.16;;;5.55;84.00
76598;BME280;65486;53.144;18.134;2022-12-29T01:19:40;100431.77;;;5.55;83.86
76598;BME280;65486;53.144;18.134;2022-12-29T01:22:09;100433.39;;;5.57;83.92
76598;BME280;65486;53.144;18.134;2022-12-29T01:24:35;100430.63;;;5.58;83.81
76598;BME280;65486;53.144;18.134;2022-12-29T01:27:02;100425.11;;;5.60;83.66
76598;BME280;65486;53.144;18.134;2022-12-29T01:29:30;100416.68;;;5.59;83.62
76598;BME280;65486;53.144;18.134;2022-12-29T01:31:59;100416.52;;;5.57;83.61
76598;BME280;65486;53.144;18.134;2022-12-29T01:34:27;100419.63;;;5.57;83.69
76598;BME280;65486;53.144;18.134;2022-12-29T01:36:55;100422.60;;;5.62;83.63
76598;BME280;65486;53.144;18.134;2022-12-29T01:39:22;100420.08;;;5.63;83.48
76598;BME280;65486;53.144;18.134;2022-12-29T01:41:50;100415.85;;;5.66;83.40
76598;BME280;65486;53.144;18.134;2022-12-29T01:44:53;100410.13;;;5.66;83.34
76598;BME280;65486;53.144;18.134;2022-12-29T01:47:27;100406.06;;;5.62;83.23
76598;BME280;65486;53.144;18.134;2022-12-29T01:50:09;100404.63;;;5.61;83.24
76598;BME280;65486;53.144;18.134;2022-12-29T01:52:42;100397.80;;;5.60;83.37
76598;BME280;65486;53.144;18.134;2022-12-29T01:55:16;100390.94;;;5.58;83.35
76598;BME280;65486;53.144;18.134;2022-12-29T01:57:49;100391.24;;;5.56;83.31
76598;BME280;65486;53.144;18.134;2022-12-29T02:00:18;100387.11;;;5.54;83.24
76598;BME280;65486;53.144;18.134;2022-12-29T02:02:54;100383.23;;;5.54;83.31
76598;BME280;65486;53.144;18.134;2022-12-29T02:07:52;100364.39;;;5.53;83.46
76598;BME280;65486;53.144;18.134;2022-12-29T02:10:21;100361.74;;;5.53;83.61
76598;BME280;65486;53.144;18.134;2022-12-29T02:12:52;100361.48;;;5.52;83.67
76598;BME280;65486;53.144;18.134;2022-12-29T02:15:31;100354.94;;;5.50;83.58
76598;BME280;65486;53.144;18.134;2022-12-29T02:18:10;100349.05;;;5.51;83.36
76598;BME280;65486;53.144;18.134;2022-12-29T02:23:43;100341.87;;;5.51;83.39
76598;BME280;65486;53.144;18.134;2022-12-29T02:35:06;100325.28;;;5.51;83.71
76598;BME280;65486;53.144;18.134;2022-12-29T02:41:08;100301.79;;;5.49;83.56
76598;BME280;65486;53.144;18.134;2022-12-29T02:46:34;100298.17;;;5.47;83.49
76598;BME280;65486;53.144;18.134;2022-12-29T02:49:36;100296.17;;;5.45;83.30
76598;BME280;65486;53.144;18.134;2022-12-29T02:52:14;100298.19;;;5.45;83.33
76598;BME280;65486;53.144;18.134;2022-12-29T02:54:43;100298.85;;;5.47;83.47
76598;BME280;65486;53.144;18.134;2022-12-29T02:59:52;100289.34;;;5.49;83.31
76598;BME280;65486;53.144;18.134;2022-12-29T03:13:37;100290.25;;;5.54;82.94
76598;BME280;65486;53.144;18.134;2022-12-29T03:16:46;100285.27;;;5.56;82.75
76598;BME280;65486;53.144;18.134;2022-12-29T03:19:31;100284.64;;;5.57;82.85
76598;BME280;65486;53.144;18.134;2022-12-29T03:22:04;100293.10;;;5.57;82.79
76598;BME280;65486;53.144;18.134;2022-12-29T03:27:48;100284.23;;;5.55;82.66
76598;BME280;65486;53.144;18.134;2022-12-29T03:30:16;100287.55;;;5.55;82.73
76598;BME280;65486;53.144;18.134;2022-12-29T03:32:53;100283.65;;;5.56;82.89
76598;BME280;65486;53.144;18.134;2022-12-29T03:35:26;100285.60;;;5.56;82.83
76598;BME280;65486;53.144;18.134;2022-12-29T03:38:16;100283.56;;;5.55;82.92
76598;BME280;65486;53.144;18.134;2022-12-29T03:40:48;100277.59;;;5.52;83.17
76598;BME280;65486;53.144;18.134;2022-12-29T03:43:17;100269.02;;;5.49;83.21
76598;BME280;65486;53.144;18.134;2022-12-29T03:45:45;100274.77;;;5.48;83.12
76598;BME280;65486;53.144;18.134;2022-12-29T03:48:12;100277.52;;;5.48;83.21
76598;BME280;65486;53.144;18.134;2022-12-29T03:50:41;100278.11;;;5.48;83.21
76598;BME280;65486;53.144;18.134;2022-12-29T03:53:08;100265.46;;;5.42;83.17
76598;BME280;65486;53.144;18.134;2022-12-29T03:55:35;100268.27;;;5.47;83.44
76598;BME280;65486;53.144;18.134;2022-12-29T03:58:04;100273.23;;;5.45;83.36
76598;BME280;65486;53.144;18.134;2022-12-29T04:00:46;100266.01;;;5.43;83.39
76598;BME280;65486;53.144;18.134;2022-12-29T04:03:12;100265.12;;;5.42;83.56
76598;BME280;65486;53.144;18.134;2022-12-29T04:05:40;100266.12;;;5.41;83.61
76598;BME280;65486;53.144;18.134;2022-12-29T04:08:07;100259.94;;;5.41;83.49
76598;BME280;65486;53.144;18.134;2022-12-29T04:10:34;100258.30;;;5.41;83.63
76598;BME280;65486;53.144;18.134;2022-12-29T04:13:03;100255.69;;;5.41;83.50
76598;BME280;65486;53.144;18.134;2022-12-29T04:15:34;100249.34;;;5.41;83.80
76598;BME280;65486;53.144;18.134;2022-12-29T04:18:06;100249.46;;;5.42;83.66
76598;BME280;65486;53.144;18.134;2022-12-29T04:20:36;100248.75;;;5.41;83.84
76598;BME280;65486;53.144;18.134;2022-12-29T04:23:22;100245.93;;;5.42;83.59
76598;BME280;65486;53.144;18.134;2022-12-29T04:25:49;100239.25;;;5.43;83.75
76598;BME280;65486;53.144;18.134;2022-12-29T04:28:16;100234.50;;;5.43;83.72
76598;BME280;65486;53.144;18.134;2022-12-29T04:31:03;100239.13;;;5.44;83.73
76598;BME280;65486;53.144;18.134;2022-12-29T04:33:47;100235.80;;;5.43;83.70
76598;BME280;65486;53.144;18.134;2022-12-29T04:36:14;100233.36;;;5.43;83.74
76598;BME280;65486;53.144;18.134;2022-12-29T04:38:43;100233.65;;;5.44;83.71
76598;BME280;65486;53.144;18.134;2022-12-29T04:41:11;100231.76;;;5.44;83.80
76598;BME280;65486;53.144;18.134;2022-12-29T04:43:40;100232.69;;;5.44;83.76
76598;BME280;65486;53.144;18.134;2022-12-29T04:46:07;100228.17;;;5.44;83.73
76598;BME280;65486;53.144;18.134;2022-12-29T04:48:45;100225.73;;;5.44;83.88
76598;BME280;65486;53.144;18.134;2022-12-29T04:51:38;100227.45;;;5.47;83.77
76598;BME280;65486;53.144;18.134;2022-12-29T04:54:09;100229.10;;;5.48;83.65
76598;BME280;65486;53.144;18.134;2022-12-29T04:56:39;100224.59;;;5.49;83.72
76598;BME280;65486;53.144;18.134;2022-12-29T04:59:08;100229.58;;;5.51;83.70
76598;BME280;65486;53.144;18.134;2022-12-29T05:01:38;100226.89;;;5.52;83.55
76598;BME280;65486;53.144;18.134;2022-12-29T05:04:07;100221.92;;;5.53;83.62
76598;BME280;65486;53.144;18.134;2022-12-29T05:06:34;100223.35;;;5.54;83.65
76598;BME280;65486;53.144;18.134;2022-12-29T05:09:01;100227.10;;;5.55;83.40
76598;BME280;65486;53.144;18.134;2022-12-29T05:11:28;100211.13;;;5.49;83.57
76598;BME280;65486;53.144;18.134;2022-12-29T05:13:57;100221.42;;;5.53;83.46
76598;BME280;65486;53.144;18.134;2022-12-29T05:16:25;100219.31;;;5.53;83.54
76598;BME280;65486;53.144;18.134;2022-12-29T05:18:53;100225.70;;;5.54;83.64
76598;BME280;65486;53.144;18.134;2022-12-29T05:21:22;100227.36;;;5.55;83.46
76598;BME280;65486;53.144;18.134;2022-12-29T05:23:49;100226.71;;;5.57;83.44
76598;BME280;65486;53.144;18.134;2022-12-29T05:26:16;100222.16;;;5.59;83.35
76598;BME280;65486;53.144;18.134;2022-12-29T05:29:19;100214.36;;;5.60;83.31
76598;BME280;65486;53.144;18.134;2022-12-29T05:31:46;100204.66;;;5.62;83.11
76598;BME280;65486;53.144;18.134;2022-12-29T05:34:13;100206.02;;;5.63;83.35
76598;BME280;65486;53.144;18.134;2022-12-29T05:36:40;100196.39;;;5.64;83.29
76598;BME280;65486;53.144;18.134;2022-12-29T05:39:09;100195.63;;;5.65;83.19
76598;BME280;65486;53.144;18.134;2022-12-29T05:41:37;100194.67;;;5.67;83.05
76598;BME280;65486;53.144;18.134;2022-12-29T05:44:05;100190.75;;;5.67;83.01
76598;BME280;65486;53.144;18.134;2022-12-29T05:46:51;100184.52;;;5.66;83.00
76598;BME280;65486;53.144;18.134;2022-12-29T05:49:25;100179.31;;;5.67;83.19
76598;BME280;65486;53.144;18.134;2022-12-29T05:52:19;100178.39;;;5.67;83.06
76598;BME280;65486;53.144;18.134;2022-12-29T05:54:47;100178.05;;;5.70;83.19
76598;BME280;65486;53.144;18.134;2022-12-29T05:57:20;100171.46;;;5.73;83.00
76598;BME280;65486;53.144;18.134;2022-12-29T05:59:54;100161.57;;;5.75;83.07
76598;BME280;65486;53.144;18.134;2022-12-29T06:02:22;100154.23;;;5.78;83.00
76598;BME280;65486;53.144;18.134;2022-12-29T06:04:51;100151.22;;;5.80;82.84
76598;BME280;65486;53.144;18.134;2022-12-29T06:07:18;100157.37;;;5.81;82.96
76598;BME280;65486;53.144;18.134;2022-12-29T06:09:46;100160.11;;;5.81;82.91
76598;BME280;65486;53.144;18.134;2022-12-29T06:12:14;100162.13;;;5.80;82.94
76598;BME280;65486;53.144;18.134;2022-12-29T06:14:43;100165.70;;;5.81;82.88
76598;BME280;65486;53.144;18.134;2022-12-29T06:17:10;100163.44;;;5.82;82.70
76598;BME280;65486;53.144;18.134;2022-12-29T06:19:37;100170.81;;;5.84;82.16
76598;BME280;65486;53.144;18.134;2022-12-29T06:22:04;100182.98;;;5.87;82.45
76598;BME280;65486;53.144;18.134;2022-12-29T06:24:34;100174.85;;;5.89;82.22
76598;BME280;65486;53.144;18.134;2022-12-29T06:27:03;100176.67;;;5.92;82.12
76598;BME280;65486;53.144;18.134;2022-12-29T06:29:30;100166.95;;;5.96;81.86
76598;BME280;65486;53.144;18.134;2022-12-29T06:31:58;100159.47;;;6.02;81.96
76598;BME280;65486;53.144;18.134;2022-12-29T06:34:26;100156.02;;;6.06;81.78
76598;BME280;65486;53.144;18.134;2022-12-29T06:36:53;100149.89;;;6.09;81.39
76598;BME280;65486;53.144;18.134;2022-12-29T06:39:21;100151.70;;;6.13;81.09
76598;BME280;65486;53.144;18.134;2022-12-29T06:42:02;100152.53;;;6.18;80.93
76598;BME280;65486;53.144;18.134;2022-12-29T06:44:41;100160.74;;;6.22;80.58
76598;BME280;65486;53.144;18.134;2022-12-29T06:47:10;100160.25;;;6.25;80.60
76598;BME280;65486;53.144;18.134;2022-12-29T06:49:37;100164.34;;;6.29;80.50
76598;BME280;65486;53.144;18.134;2022-12-29T06:52:04;100163.88;;;6.33;80.46
76598;BME280;65486;53.144;18.134;2022-12-29T06:54:31;100168.71;;;6.36;80.09
76598;BME280;65486;53.144;18.134;2022-12-29T06:56:58;100159.63;;;6.32;80.29
76598;BME280;65486;53.144;18.134;2022-12-29T06:59:26;100171.13;;;6.43;80.10
76598;BME280;65486;53.144;18.134;2022-12-29T07:01:53;100174.17;;;6.45;79.97
76598;BME280;65486;53.144;18.134;2022-12-29T07:04:20;100174.36;;;6.47;80.16
76598;BME280;65486;53.144;18.134;2022-12-29T07:06:47;100164.13;;;6.50;79.27
76598;BME280;65486;53.144;18.134;2022-12-29T07:09:19;100168.77;;;6.53;79.58
76598;BME280;65486;53.144;18.134;2022-12-29T07:11:51;100164.39;;;6.56;79.51
76598;BME280;65486;53.144;18.134;2022-12-29T07:14:19;100169.92;;;6.58;79.30
76598;BME280;65486;53.144;18.134;2022-12-29T07:16:55;100168.29;;;6.62;79.33
76598;BME280;65486;53.144;18.134;2022-12-29T07:19:22;100181.41;;;6.66;78.67
76598;BME280;65486;53.144;18.134;2022-12-29T07:21:49;100185.02;;;6.70;78.64
76598;BME280;65486;53.144;18.134;2022-12-29T07:24:17;100184.46;;;6.73;79.16
76598;BME280;65486;53.144;18.134;2022-12-29T07:26:44;100174.27;;;6.75;79.26
76598;BME280;65486;53.144;18.134;2022-12-29T07:29:11;100167.98;;;6.77;78.80
76598;BME280;65486;53.144;18.134;2022-12-29T07:31:38;100173.46;;;6.80;78.93
76598;BME280;65486;53.144;18.134;2022-12-29T07:34:05;100181.05;;;6.81;77.84
76598;BME280;65486;53.144;18.134;2022-12-29T07:36:32;100181.17;;;6.85;78.10
76598;BME280;65486;53.144;18.134;2022-12-29T07:39:17;100184.73;;;6.88;78.13
76598;BME280;65486;53.144;18.134;2022-12-29T07:41:45;100179.23;;;6.91;78.08
76598;BME280;65486;53.144;18.134;2022-12-29T07:44:18;100173.52;;;6.94;77.49
76598;BME280;65486;53.144;18.134;2022-12-29T07:47:15;100146.02;;;6.85;77.32
76598;BME280;65486;53.144;18.134;2022-12-29T07:49:42;100167.30;;;6.99;77.34
76598;BME280;65486;53.144;18.134;2022-12-29T07:52:09;100159.30;;;7.01;77.58
76598;BME280;65486;53.144;18.134;2022-12-29T07:54:35;100161.20;;;7.01;77.09
76598;BME280;65486;53.144;18.134;2022-12-29T07:57:03;100160.69;;;7.01;77.34
76598;BME280;65486;53.144;18.134;2022-12-29T07:59:30;100153.77;;;6.99;77.27
76598;BME280;65486;53.144;18.134;2022-12-29T08:01:58;100150.88;;;6.97;77.06
76598;BME280;65486;53.144;18.134;2022-12-29T08:04:25;100139.13;;;6.98;76.87
76598;BME280;65486;53.144;18.134;2022-12-29T08:06:53;100135.55;;;7.00;77.52
76598;BME280;65486;53.144;18.134;2022-12-29T08:09:20;100135.11;;;7.03;76.98
76598;BME280;65486;53.144;18.134;2022-12-29T08:11:47;100138.35;;;7.09;76.71
76598;BME280;65486;53.144;18.134;2022-12-29T08:14:14;100143.89;;;7.18;76.78
76598;BME280;65486;53.144;18.134;2022-12-29T08:16:41;100158.59;;;7.26;75.27
76598;BME280;65486;53.144;18.134;2022-12-29T08:19:10;100161.11;;;7.28;76.28
76598;BME280;65486;53.144;18.134;2022-12-29T08:21:39;100157.34;;;7.29;75.61
76598;BME280;65486;53.144;18.134;2022-12-29T08:24:09;100160.81;;;7.32;76.58
76598;BME280;65486;53.144;18.134;2022-12-29T08:26:36;100156.23;;;7.34;75.49
76598;BME280;65486;53.144;18.134;2022-12-29T08:29:03;100157.70;;;7.37;75.13
76598;BME280;65486;53.144;18.134;2022-12-29T08:31:30;100158.91;;;7.41;75.95
76598;BME280;65486;53.144;18.134;2022-12-29T08:33:57;100157.13;;;7.54;75.97
76598;BME280;65486;53.144;18.134;2022-12-29T08:36:25;100151.58;;;7.74;75.08
76598;BME280;65486;53.144;18.134;2022-12-29T08:38:52;100155.27;;;7.98;74.64
76598;BME280;65486;53.144;18.134;2022-12-29T08:41:19;100166.91;;;8.01;74.77
76598;BME280;65486;53.144;18.134;2022-12-29T08:43:47;100171.48;;;7.99;74.33
76598;BME280;65486;53.144;18.134;2022-12-29T08:46:14;100170.61;;;7.96;74.01
76598;BME280;65486;53.144;18.134;2022-12-29T08:48:42;100174.17;;;7.95;74.98
76598;BME280;65486;53.144;18.134;2022-12-29T08:51:15;100174.85;;;7.94;75.10
76598;BME280;65486;53.144;18.134;2022-12-29T08:53:43;100178.15;;;7.94;75.02
76598;BME280;65486;53.144;18.134;2022-12-29T08:56:11;100173.39;;;7.97;74.91
76598;BME280;65486;53.144;18.134;2022-12-29T08:58:45;100175.04;;;8.00;75.03
76598;BME280;65486;53.144;18.134;2022-12-29T09:01:12;100163.86;;;8.02;74.73
76598;BME280;65486;53.144;18.134;2022-12-29T09:03:39;100162.67;;;8.04;74.87
76598;BME280;65486;53.144;18.134;2022-12-29T09:06:08;100167.53;;;8.04;75.18
76598;BME280;65486;53.144;18.134;2022-12-29T09:08:35;100158.79;;;8.03;75.49
76598;BME280;65486;53.144;18.134;2022-12-29T09:11:12;100160.45;;;8.00;74.56
76598;BME280;65486;53.144;18.134;2022-12-29T09:13:43;100162.16;;;7.99;75.07
76598;BME280;65486;53.144;18.134;2022-12-29T09:16:12;100159.16;;;7.98;74.79
76598;BME280;65486;53.144;18.134;2022-12-29T09:18:39;100156.45;;;7.98;73.97
76598;BME280;65486;53.144;18.134;2022-12-29T09:21:07;100153.96;;;7.98;74.46
76598;BME280;65486;53.144;18.134;2022-12-29T09:23:34;100153.45;;;7.99;73.93
76598;BME280;65486;53.144;18.134;2022-12-29T09:26:02;100153.11;;;8.00;74.21
76598;BME280;65486;53.144;18.134;2022-12-29T09:28:30;100161.83;;;8.02;74.73
76598;BME280;65486;53.144;18.134;2022-12-29T09:30:58;100156.34;;;8.02;75.01
76598;BME280;65486;53.144;18.134;2022-12-29T09:33:26;100145.82;;;8.01;74.46
76598;BME280;65486;53.144;18.134;2022-12-29T09:35:57;100145.02;;;8.02;74.32
76598;BME280;65486;53.144;18.134;2022-12-29T09:38:26;100151.44;;;8.03;74.42
76598;BME280;65486;53.144;18.134;2022-12-29T09:40:57;100153.38;;;8.02;74.48
76598;BME280;65486;53.144;18.134;2022-12-29T09:48:45;100146.34;;;8.00;73.19
76598;BME280;65486;53.144;18.134;2022-12-29T09:51:23;100144.05;;;8.02;74.11
76598;BME280;65486;53.144;18.134;2022-12-29T09:56:47;100134.70;;;8.05;73.73
76598;BME280;65486;53.144;18.134;2022-12-29T09:59:18;100133.02;;;8.07;73.46
76598;BME280;65486;53.144;18.134;2022-12-29T10:02:03;100134.88;;;8.10;73.65
76598;BME280;65486;53.144;18.134;2022-12-29T10:04:33;100132.98;;;8.13;73.96
76598;BME280;65486;53.144;18.134;2022-12-29T10:07:09;100139.98;;;8.16;73.57
76598;BME280;65486;53.144;18.134;2022-12-29T10:18:23;100128.93;;;8.18;73.33
76598;BME280;65486;53.144;18.134;2022-12-29T10:23:32;100124.50;;;8.22;73.05
76598;BME280;65486;53.144;18.134;2022-12-29T10:26:02;100122.09;;;8.25;72.78
76598;BME280;65486;53.144;18.134;2022-12-29T10:28:43;100118.71;;;8.26;72.97
76598;BME280;65486;53.144;18.134;2022-12-29T10:31:31;100124.64;;;8.27;72.89
76598;BME280;65486;53.144;18.134;2022-12-29T10:34:14;100120.07;;;8.28;73.22
76598;BME280;65486;53.144;18.134;2022-12-29T10:36:46;100118.45;;;8.28;73.10
76598;BME280;65486;53.144;18.134;2022-12-29T10:42:37;100121.07;;;8.32;72.87
76598;BME280;65486;53.144;18.134;2022-12-29T10:45:12;100118.63;;;8.32;72.97
76598;BME280;65486;53.144;18.134;2022-12-29T10:48:06;100109.63;;;8.31;72.78
76598;BME280;65486;53.144;18.134;2022-12-29T10:50:36;100111.14;;;8.32;73.50
76598;BME280;65486;53.144;18.134;2022-12-29T10:53:19;100109.02;;;8.34;73.13
76598;BME280;65486;53.144;18.134;2022-12-29T10:55:49;100113.48;;;8.36;72.53
76598;BME280;65486;53.144;18.134;2022-12-29T10:58:21;100110.25;;;8.38;72.61
76598;BME280;65486;53.144;18.134;2022-12-29T11:00:52;100109.65;;;8.40;72.83
76598;BME280;65486;53.144;18.134;2022-12-29T11:03:41;100106.17;;;8.41;72.99
76598;BME280;65486;53.144;18.134;2022-12-29T11:06:25;100104.68;;;8.41;72.16
76598;BME280;65486;53.144;18.134;2022-12-29T11:08:57;100100.36;;;8.44;72.15
76598;BME280;65486;53.144;18.134;2022-12-29T11:11:34;100100.85;;;8.49;71.86
76598;BME280;65486;53.144;18.134;2022-12-29T11:14:17;100093.95;;;8.54;72.54
76598;BME280;65486;53.144;18.134;2022-12-29T11:17:00;100093.32;;;8.59;72.60
76598;BME280;65486;53.144;18.134;2022-12-29T11:19:35;100092.84;;;8.62;72.53
76598;BME280;65486;53.144;18.134;2022-12-29T11:22:27;100087.89;;;8.66;71.54
76598;BME280;65486;53.144;18.134;2022-12-29T11:25:06;100073.88;;;8.73;72.03
76598;BME280;65486;53.144;18.134;2022-12-29T11:27:36;100066.93;;;8.76;71.20
76598;BME280;65486;53.144;18.134;2022-12-29T11:30:22;100061.60;;;8.78;71.09
76598;BME280;65486;53.144;18.134;2022-12-29T11:32:51;100062.34;;;8.82;71.45
76598;BME280;65486;53.144;18.134;2022-12-29T11:35:31;100057.96;;;8.83;70.94
76598;BME280;65486;53.144;18.134;2022-12-29T11:38:02;100063.15;;;8.84;71.60
76598;BME280;65486;53.144;18.134;2022-12-29T11:40:39;100057.73;;;8.88;71.84
76598;BME280;65486;53.144;18.134;2022-12-29T11:43:45;100049.90;;;8.95;71.19
76598;BME280;65486;53.144;18.134;2022-12-29T11:46:05;100060.38;;;9.14;70.82
76598;BME280;65486;53.144;18.134;2022-12-29T11:48:40;100059.91;;;9.19;71.55
76598;BME280;65486;53.144;18.134;2022-12-29T11:51:10;100056.30;;;9.21;71.78
76598;BME280;65486;53.144;18.134;2022-12-29T11:53:46;100046.74;;;9.20;70.96
76598;BME280;65486;53.144;18.134;2022-12-29T11:56:16;100033.05;;;9.10;70.90
76598;BME280;65486;53.144;18.134;2022-12-29T11:58:44;100050.11;;;9.13;70.64
76598;BME280;65486;53.144;18.134;2022-12-29T12:03:59;100046.80;;;9.07;70.93
76598;BME280;65486;53.144;18.134;2022-12-29T12:06:32;100045.54;;;9.09;70.03
76598;BME280;65486;53.144;18.134;2022-12-29T12:09:19;100044.92;;;9.12;70.32
76598;BME280;65486;53.144;18.134;2022-12-29T12:11:52;100044.84;;;9.11;70.94
76598;BME280;65486;53.144;18.134;2022-12-29T12:17:46;100032.25;;;9.07;70.59
76598;BME280;65486;53.144;18.134;2022-12-29T12:20:34;100034.52;;;9.04;71.00
76598;BME280;65486;53.144;18.134;2022-12-29T12:26:19;100035.77;;;8.98;71.30
76598;BME280;65486;53.144;18.134;2022-12-29T12:29:25;100039.56;;;8.96;71.09
76598;BME280;65486;53.144;18.134;2022-12-29T12:32:01;100040.79;;;8.97;71.35
76598;BME280;65486;53.144;18.134;2022-12-29T12:34:44;100041.63;;;8.97;71.50
76598;BME280;65486;53.144;18.134;2022-12-29T12:37:31;100040.25;;;8.97;71.09
76598;BME280;65486;53.144;18.134;2022-12-29T13:02:48;100029.05;;;9.02;71.59
76598;BME280;65486;53.144;18.134;2022-12-29T13:08:32;100026.36;;;9.07;71.38
76598;BME280;65486;53.144;18.134;2022-12-29T13:14:51;100025.09;;;9.17;71.29
76598;BME280;65486;53.144;18.134;2022-12-29T13:17:42;100027.12;;;9.19;70.94
76598;BME280;65486;53.144;18.134;2022-12-29T13:20:49;100030.13;;;9.19;71.27
76598;BME280;65486;53.144;18.134;2022-12-29T13:23:30;100033.09;;;9.17;70.89
76598;BME280;65486;53.144;18.134;2022-12-29T13:26:21;100036.77;;;9.17;71.11
76598;BME280;65486;53.144;18.134;2022-12-29T13:29:03;100041.86;;;9.15;71.19
76598;BME280;65486;53.144;18.134;2022-12-29T13:37:15;100049.66;;;9.07;71.28
76598;BME280;65486;53.144;18.134;2022-12-29T13:39:54;100046.64;;;9.03;71.56
76598;BME280;65486;53.144;18.134;2022-12-29T13:42:26;100048.36;;;9.02;71.44
76598;BME280;65486;53.144;18.134;2022-12-29T13:45:14;100045.27;;;8.97;71.67
76598;BME280;65486;53.144;18.134;2022-12-29T13:48:02;100044.63;;;8.95;71.75
76598;BME280;65486;53.144;18.134;2022-12-29T13:50:36;100043.44;;;8.91;71.85
76598;BME280;65486;53.144;18.134;2022-12-29T13:53:27;100043.40;;;8.87;72.16
76598;BME280;65486;53.144;18.134;2022-12-29T13:56:17;100042.02;;;8.81;72.23
76598;BME280;65486;53.144;18.134;2022-12-29T13:59:05;100047.52;;;8.76;72.16
76598;BME280;65486;53.144;18.134;2022-12-29T14:05:02;100055.08;;;8.68;72.21
76598;BME280;65486;53.144;18.134;2022-12-29T14:07:41;100055.70;;;8.69;72.38
76598;BME280;65486;53.144;18.134;2022-12-29T14:13:17;100051.80;;;8.62;72.46
76598;BME280;65486;53.144;18.134;2022-12-29T14:15:52;100052.59;;;8.59;72.37
76598;BME280;65486;53.144;18.134;2022-12-29T14:18:28;100057.61;;;8.57;72.55
76598;BME280;65486;53.144;18.134;2022-12-29T14:28:46;100054.59;;;8.34;73.16
76598;BME280;65486;53.144;18.134;2022-12-29T14:31:39;100064.89;;;8.37;73.19
76598;BME280;65486;53.144;18.134;2022-12-29T14:36:54;100064.09;;;8.28;73.49
76598;BME280;65486;53.144;18.134;2022-12-29T14:39:35;100064.30;;;8.22;73.61
76598;BME280;65486;53.144;18.134;2022-12-29T14:42:21;100066.73;;;8.15;73.52
76598;BME280;65486;53.144;18.134;2022-12-29T14:44:52;100061.77;;;8.11;73.82
76598;BME280;65486;53.144;18.134;2022-12-29T14:47:31;100062.69;;;8.11;73.89
76598;BME280;65486;53.144;18.134;2022-12-29T14:52:48;100056.30;;;8.12;74.05
76598;BME280;65486;53.144;18.134;2022-12-29T14:58:00;100060.58;;;8.16;74.16
76598;BME280;65486;53.144;18.134;2022-12-29T15:00:34;100057.80;;;8.16;74.41
76598;BME280;65486;53.144;18.134;2022-12-29T15:03:12;100057.96;;;8.21;74.25
76598;BME280;65486;53.144;18.134;2022-12-29T15:05:46;100062.81;;;8.28;74.07
76598;BME280;65486;53.144;18.134;2022-12-29T15:08:23;100069.77;;;8.33;74.07
76598;BME280;65486;53.144;18.134;2022-12-29T15:11:14;100065.20;;;8.39;73.95
76598;BME280;65486;53.144;18.134;2022-12-29T15:14:03;100065.64;;;8.43;73.84
76598;BME280;65486;53.144;18.134;2022-12-29T15:16:51;100061.98;;;8.46;73.76
76598;BME280;65486;53.144;18.134;2022-12-29T15:19:21;100060.82;;;8.49;73.69
76598;BME280;65486;53.144;18.134;2022-12-29T15:21:50;100066.73;;;8.51;73.68
76598;BME280;65486;53.144;18.134;2022-12-29T15:24:20;100060.73;;;8.53;73.66
76598;BME280;65486;53.144;18.134;2022-12-29T15:26:51;100060.16;;;8.56;73.55
76598;BME280;65486;53.144;18.134;2022-12-29T15:29:38;100057.80;;;8.58;73.50
76598;BME280;65486;53.144;18.134;2022-12-29T15:34:43;100053.77;;;8.63;73.47